sensor_id;sensor_type;location;lat;lon;timestamp;temperature;humidity
64396;DHT22;50717;53.360;6.290;2022-11-15T00:00:06;7.50;99.90
64396;DHT22;50717;53.360;6.290;2022-11-15T00:02:32;7.60;99.90
64396;DHT22;50717;53.360;6.290;2022-11-15T00:04:58;8.00;99.90
64396;DHT22;50717;53.360;6.290;2022-11-15T00:07:23;8.60;99.90
64396;DHT22;50717;53.360;6.290;2022-11-15T00:09:49;8.70;99.90
64396;DHT22;50717;53.360;6.290;2022-11-15T00:12:15;7.90;99.90
64396;DHT22;50717;53.360;6.290;2022-11-15T00:14:40;7.80;99.90
64396;DHT22;50717;53.360;6.290;2022-11-15T00:17:06;8.30;99.90
64396;DHT22;50717;53.360;6.290;2022-11-15T00:19:31;8.30;99.90
64396;DHT22;50717;53.360;6.290;2022-11-15T00:21:57;7.90;99.90
64396;DHT22;50717;53.360;6.290;2022-11-15T00:24:23;8.00;99.90
64396;DHT22;50717;53.360;6.290;2022-11-15T00:26:48;9.00;99.90
64396;DHT22;50717;53.360;6.290;2022-11-15T00:29:14;7.60;99.90
64396;DHT22;50717;53.360;6.290;2022-11-15T00:31:40;8.80;99.90
64396;DHT22;50717;53.360;6.290;2022-11-15T00:34:05;7.20;99.90
64396;DHT22;50717;53.360;6.290;2022-11-15T00:36:33;8.20;99.90
64396;DHT22;50717;53.360;6.290;2022-11-15T00:38:59;7.80;99.90
64396;DHT22;50717;53.360;6.290;2022-11-15T00:41:24;8.20;99.90
64396;DHT22;50717;53.360;6.290;2022-11-15T00:43:50;7.60;99.90
64396;DHT22;50717;53.360;6.290;2022-11-15T00:46:16;7.80;99.90
64396;DHT22;50717;53.360;6.290;2022-11-15T00:48:41;7.70;99.90
64396;DHT22;50717;53.360;6.290;2022-11-15T00:51:07;7.30;99.90
64396;DHT22;50717;53.360;6.290;2022-11-15T00:53:33;8.00;99.90
64396;DHT22;50717;53.360;6.290;2022-11-15T00:55:58;6.80;99.90
64396;DHT22;50717;53.360;6.290;2022-11-15T00:58:24;6.90;99.90
64396;DHT22;50717;53.360;6.290;2022-11-15T01:00:49;8.00;99.90
64396;DHT22;50717;53.360;6.290;2022-11-15T01:03:15;7.00;99.90
64396;DHT22;50717;53.360;6.290;2022-11-15T01:05:41;7.00;99.90
64396;DHT22;50717;53.360;6.290;2022-11-15T01:08:10;6.80;99.90
64396;DHT22;50717;53.360;6.290;2022-11-15T01:10:37;7.90;99.90
64396;DHT22;50717;53.360;6.290;2022-11-15T01:13:02;7.80;99.90
64396;DHT22;50717;53.360;6.290;2022-11-15T01:15:28;7.20;99.90
64396;DHT22;50717;53.360;6.290;2022-11-15T01:17:53;7.40;99.90
64396;DHT22;50717;53.360;6.290;2022-11-15T01:20:20;8.10;99.90
64396;DHT22;50717;53.360;6.290;2022-11-15T01:22:45;7.40;99.90
64396;DHT22;50717;53.360;6.290;2022-11-15T01:25:11;8.40;99.90
64396;DHT22;50717;53.360;6.290;2022-11-15T01:27:37;7.80;99.90
64396;DHT22;50717;53.360;6.290;2022-11-15T01:30:03;7.50;99.90
64396;DHT22;50717;53.360;6.290;2022-11-15T01:32:29;7.30;99.90
64396;DHT22;50717;53.360;6.290;2022-11-15T01:34:55;7.30;99.90
64396;DHT22;50717;53.360;6.290;2022-11-15T01:37:21;8.10;99.90
64396;DHT22;50717;53.360;6.290;2022-11-15T01:39:46;8.30;99.90
64396;DHT22;50717;53.360;6.290;2022-11-15T01:42:13;7.50;99.90
64396;DHT22;50717;53.360;6.290;2022-11-15T01:44:45;7.30;99.90
64396;DHT22;50717;53.360;6.290;2022-11-15T01:47:19;8.50;99.90
64396;DHT22;50717;53.360;6.290;2022-11-15T01:49:58;7.40;99.90
64396;DHT22;50717;53.360;6.290;2022-11-15T01:52:27;7.60;99.90
64396;DHT22;50717;53.360;6.290;2022-11-15T01:57:24;7.80;99.90
64396;DHT22;50717;53.360;6.290;2022-11-15T01:59:49;7.50;99.90
64396;DHT22;50717;53.360;6.290;2022-11-15T02:02:16;7.60;99.90
64396;DHT22;50717;53.360;6.290;2022-11-15T02:04:46;7.90;99.90
64396;DHT22;50717;53.360;6.290;2022-11-15T02:07:15;8.50;99.90
64396;DHT22;50717;53.360;6.290;2022-11-15T02:09:41;8.50;99.90
64396;DHT22;50717;53.360;6.290;2022-11-15T02:12:09;7.90;99.90
64396;DHT22;50717;53.360;6.290;2022-11-15T02:14:37;7.70;99.90
64396;DHT22;50717;53.360;6.290;2022-11-15T02:30:54;9.40;99.90
64396;DHT22;50717;53.360;6.290;2022-11-15T02:33:40;7.40;99.90
64396;DHT22;50717;53.360;6.290;2022-11-15T02:38:56;7.60;99.90
64396;DHT22;50717;53.360;6.290;2022-11-15T02:41:31;8.40;99.90
64396;DHT22;50717;53.360;6.290;2022-11-15T02:44:02;7.50;99.90
64396;DHT22;50717;53.360;6.290;2022-11-15T02:46:37;7.60;99.90
64396;DHT22;50717;53.360;6.290;2022-11-15T02:49:25;7.50;99.90
64396;DHT22;50717;53.360;6.290;2022-11-15T02:51:51;8.70;99.90
64396;DHT22;50717;53.360;6.290;2022-11-15T02:54:23;8.70;99.90
64396;DHT22;50717;53.360;6.290;2022-11-15T02:56:50;8.20;99.90
64396;DHT22;50717;53.360;6.290;2022-11-15T03:04:53;7.50;99.90
64396;DHT22;50717;53.360;6.290;2022-11-15T03:07:29;7.40;99.90
64396;DHT22;50717;53.360;6.290;2022-11-15T03:10:21;7.30;99.90
64396;DHT22;50717;53.360;6.290;2022-11-15T03:12:57;7.30;99.90
64396;DHT22;50717;53.360;6.290;2022-11-15T03:15:29;7.40;99.90
64396;DHT22;50717;53.360;6.290;2022-11-15T03:18:01;8.00;99.90
64396;DHT22;50717;53.360;6.290;2022-11-15T03:20:30;7.50;99.90
64396;DHT22;50717;53.360;6.290;2022-11-15T03:23:01;7.10;99.90
64396;DHT22;50717;53.360;6.290;2022-11-15T03:25:30;7.80;99.90
64396;DHT22;50717;53.360;6.290;2022-11-15T03:27:58;7.90;99.90
64396;DHT22;50717;53.360;6.290;2022-11-15T03:30:27;7.10;99.90
64396;DHT22;50717;53.360;6.290;2022-11-15T03:32:56;7.10;99.90
64396;DHT22;50717;53.360;6.290;2022-11-15T03:35:24;8.70;99.90
64396;DHT22;50717;53.360;6.290;2022-11-15T03:37:57;7.10;99.90
64396;DHT22;50717;53.360;6.290;2022-11-15T03:40:30;7.30;99.90
64396;DHT22;50717;53.360;6.290;2022-11-15T03:45:43;7.40;99.90
64396;DHT22;50717;53.360;6.290;2022-11-15T03:48:16;7.20;99.90
64396;DHT22;50717;53.360;6.290;2022-11-15T03:50:45;7.60;99.90
64396;DHT22;50717;53.360;6.290;2022-11-15T03:53:13;7.30;99.90
64396;DHT22;50717;53.360;6.290;2022-11-15T03:55:39;7.60;99.90
64396;DHT22;50717;53.360;6.290;2022-11-15T03:58:05;7.20;99.90
64396;DHT22;50717;53.360;6.290;2022-11-15T04:00:31;8.60;99.90
64396;DHT22;50717;53.360;6.290;2022-11-15T04:02:57;7.50;99.90
64396;DHT22;50717;53.360;6.290;2022-11-15T04:05:23;7.20;99.90
64396;DHT22;50717;53.360;6.290;2022-11-15T04:07:49;7.70;99.90
64396;DHT22;50717;53.360;6.290;2022-11-15T04:10:15;7.40;99.90
64396;DHT22;50717;53.360;6.290;2022-11-15T04:12:43;7.40;99.90
64396;DHT22;50717;53.360;6.290;2022-11-15T04:15:12;7.30;99.90
64396;DHT22;50717;53.360;6.290;2022-11-15T04:17:41;7.80;99.90
64396;DHT22;50717;53.360;6.290;2022-11-15T04:20:20;8.50;99.90
64396;DHT22;50717;53.360;6.290;2022-11-15T04:23:11;7.30;99.90
64396;DHT22;50717;53.360;6.290;2022-11-15T04:25:56;8.60;99.90
64396;DHT22;50717;53.360;6.290;2022-11-15T04:28:23;8.50;99.90
64396;DHT22;50717;53.360;6.290;2022-11-15T04:30:49;7.20;99.90
64396;DHT22;50717;53.360;6.290;2022-11-15T04:33:15;8.20;99.90
64396;DHT22;50717;53.360;6.290;2022-11-15T04:35:42;7.60;99.90
64396;DHT22;50717;53.360;6.290;2022-11-15T04:38:09;7.60;99.90
64396;DHT22;50717;53.360;6.290;2022-11-15T04:40:36;7.70;99.90
64396;DHT22;50717;53.360;6.290;2022-11-15T04:43:02;7.70;99.90
64396;DHT22;50717;53.360;6.290;2022-11-15T04:45:27;7.80;99.90
64396;DHT22;50717;53.360;6.290;2022-11-15T04:47:53;7.70;99.90
64396;DHT22;50717;53.360;6.290;2022-11-15T04:50:19;7.90;99.90
64396;DHT22;50717;53.360;6.290;2022-11-15T04:52:51;7.60;99.90
64396;DHT22;50717;53.360;6.290;2022-11-15T04:55:17;7.60;99.90
64396;DHT22;50717;53.360;6.290;2022-11-15T04:57:43;7.80;99.90
64396;DHT22;50717;53.360;6.290;2022-11-15T05:00:15;8.00;99.90
64396;DHT22;50717;53.360;6.290;2022-11-15T05:02:41;7.50;99.90
64396;DHT22;50717;53.360;6.290;2022-11-15T05:05:26;8.10;99.90
64396;DHT22;50717;53.360;6.290;2022-11-15T05:07:51;7.60;99.90
64396;DHT22;50717;53.360;6.290;2022-11-15T05:10:17;8.50;99.90
64396;DHT22;50717;53.360;6.290;2022-11-15T05:12:43;8.50;99.90
64396;DHT22;50717;53.360;6.290;2022-11-15T05:15:09;8.30;99.90
64396;DHT22;50717;53.360;6.290;2022-11-15T05:17:34;7.50;99.90
64396;DHT22;50717;53.360;6.290;2022-11-15T05:20:00;8.10;99.90
64396;DHT22;50717;53.360;6.290;2022-11-15T05:22:26;8.30;99.90
64396;DHT22;50717;53.360;6.290;2022-11-15T05:24:52;8.10;99.90
64396;DHT22;50717;53.360;6.290;2022-11-15T05:27:18;8.20;99.90
64396;DHT22;50717;53.360;6.290;2022-11-15T05:29:43;8.50;99.90
64396;DHT22;50717;53.360;6.290;2022-11-15T05:32:10;8.60;99.90
64396;DHT22;50717;53.360;6.290;2022-11-15T05:34:37;8.30;99.90
64396;DHT22;50717;53.360;6.290;2022-11-15T05:37:03;8.50;99.90
64396;DHT22;50717;53.360;6.290;2022-11-15T05:39:29;8.00;99.90
64396;DHT22;50717;53.360;6.290;2022-11-15T05:41:59;9.20;99.90
64396;DHT22;50717;53.360;6.290;2022-11-15T05:44:26;7.90;99.90
64396;DHT22;50717;53.360;6.290;2022-11-15T05:46:53;9.00;99.90
64396;DHT22;50717;53.360;6.290;2022-11-15T05:49:23;7.90;99.90
64396;DHT22;50717;53.360;6.290;2022-11-15T05:51:50;8.60;99.90
64396;DHT22;50717;53.360;6.290;2022-11-15T05:54:17;7.80;99.90
64396;DHT22;50717;53.360;6.290;2022-11-15T05:56:45;8.80;99.90
64396;DHT22;50717;53.360;6.290;2022-11-15T05:59:11;8.20;99.90
64396;DHT22;50717;53.360;6.290;2022-11-15T06:01:38;9.10;99.90
64396;DHT22;50717;53.360;6.290;2022-11-15T06:04:04;8.30;99.90
64396;DHT22;50717;53.360;6.290;2022-11-15T06:06:30;8.20;99.90
64396;DHT22;50717;53.360;6.290;2022-11-15T06:08:55;8.20;99.90
64396;DHT22;50717;53.360;6.290;2022-11-15T06:11:21;9.60;99.90
64396;DHT22;50717;53.360;6.290;2022-11-15T06:13:47;9.20;99.90
64396;DHT22;50717;53.360;6.290;2022-11-15T06:16:12;8.90;99.90
64396;DHT22;50717;53.360;6.290;2022-11-15T06:18:39;8.60;99.90
64396;DHT22;50717;53.360;6.290;2022-11-15T06:21:05;8.20;99.90
64396;DHT22;50717;53.360;6.290;2022-11-15T06:23:31;8.50;99.90
64396;DHT22;50717;53.360;6.290;2022-11-15T06:25:58;9.30;99.90
64396;DHT22;50717;53.360;6.290;2022-11-15T06:28:24;8.70;99.90
64396;DHT22;50717;53.360;6.290;2022-11-15T06:30:50;8.60;99.90
64396;DHT22;50717;53.360;6.290;2022-11-15T06:33:15;8.30;99.90
64396;DHT22;50717;53.360;6.290;2022-11-15T06:35:41;8.60;99.90
64396;DHT22;50717;53.360;6.290;2022-11-15T06:38:08;9.00;99.90
64396;DHT22;50717;53.360;6.290;2022-11-15T06:40:36;8.60;99.90
64396;DHT22;50717;53.360;6.290;2022-11-15T06:43:02;8.50;99.90
64396;DHT22;50717;53.360;6.290;2022-11-15T06:45:28;8.50;99.90
64396;DHT22;50717;53.360;6.290;2022-11-15T06:47:54;9.20;99.90
64396;DHT22;50717;53.360;6.290;2022-11-15T06:50:19;8.70;99.90
64396;DHT22;50717;53.360;6.290;2022-11-15T06:52:45;8.60;99.90
64396;DHT22;50717;53.360;6.290;2022-11-15T06:55:10;9.20;99.90
64396;DHT22;50717;53.360;6.290;2022-11-15T06:57:36;10.10;99.90
64396;DHT22;50717;53.360;6.290;2022-11-15T07:00:04;9.20;99.90
64396;DHT22;50717;53.360;6.290;2022-11-15T07:02:30;8.90;99.90
64396;DHT22;50717;53.360;6.290;2022-11-15T07:04:56;9.40;99.90
64396;DHT22;50717;53.360;6.290;2022-11-15T07:07:21;9.80;99.90
64396;DHT22;50717;53.360;6.290;2022-11-15T07:09:47;9.30;99.90
64396;DHT22;50717;53.360;6.290;2022-11-15T07:12:13;9.20;99.90
64396;DHT22;50717;53.360;6.290;2022-11-15T07:14:39;8.70;99.90
64396;DHT22;50717;53.360;6.290;2022-11-15T07:17:05;8.80;99.90
64396;DHT22;50717;53.360;6.290;2022-11-15T07:19:31;9.50;99.90
64396;DHT22;50717;53.360;6.290;2022-11-15T07:21:57;8.90;99.90
64396;DHT22;50717;53.360;6.290;2022-11-15T07:24:22;8.80;99.90
64396;DHT22;50717;53.360;6.290;2022-11-15T07:26:48;9.40;99.90
64396;DHT22;50717;53.360;6.290;2022-11-15T07:29:13;9.60;99.90
64396;DHT22;50717;53.360;6.290;2022-11-15T07:31:39;9.60;99.90
64396;DHT22;50717;53.360;6.290;2022-11-15T07:34:05;9.70;99.90
64396;DHT22;50717;53.360;6.290;2022-11-15T07:36:30;9.40;99.90
64396;DHT22;50717;53.360;6.290;2022-11-15T07:38:56;9.70;99.90
64396;DHT22;50717;53.360;6.290;2022-11-15T07:41:22;8.90;99.90
64396;DHT22;50717;53.360;6.290;2022-11-15T07:43:51;9.40;99.90
64396;DHT22;50717;53.360;6.290;2022-11-15T07:46:17;8.90;99.90
64396;DHT22;50717;53.360;6.290;2022-11-15T07:48:42;9.30;99.90
64396;DHT22;50717;53.360;6.290;2022-11-15T07:51:14;10.40;99.90
64396;DHT22;50717;53.360;6.290;2022-11-15T07:53:40;9.90;99.90
64396;DHT22;50717;53.360;6.290;2022-11-15T07:56:07;9.80;99.90
64396;DHT22;50717;53.360;6.290;2022-11-15T07:58:33;9.30;99.90
64396;DHT22;50717;53.360;6.290;2022-11-15T08:01:03;9.40;99.90
64396;DHT22;50717;53.360;6.290;2022-11-15T08:03:29;9.20;99.90
64396;DHT22;50717;53.360;6.290;2022-11-15T08:05:55;10.30;99.90
64396;DHT22;50717;53.360;6.290;2022-11-15T08:08:20;9.60;99.90
64396;DHT22;50717;53.360;6.290;2022-11-15T08:10:49;9.80;99.90
64396;DHT22;50717;53.360;6.290;2022-11-15T08:13:14;10.10;99.90
64396;DHT22;50717;53.360;6.290;2022-11-15T08:15:40;10.20;99.90
64396;DHT22;50717;53.360;6.290;2022-11-15T08:18:10;9.30;99.90
64396;DHT22;50717;53.360;6.290;2022-11-15T08:20:37;9.80;99.90
64396;DHT22;50717;53.360;6.290;2022-11-15T08:23:03;10.20;99.90
64396;DHT22;50717;53.360;6.290;2022-11-15T08:25:31;10.50;99.90
64396;DHT22;50717;53.360;6.290;2022-11-15T08:28:00;9.50;99.90
64396;DHT22;50717;53.360;6.290;2022-11-15T08:30:27;10.90;99.90
64396;DHT22;50717;53.360;6.290;2022-11-15T08:32:54;11.60;99.90
64396;DHT22;50717;53.360;6.290;2022-11-15T08:35:21;10.80;99.90
64396;DHT22;50717;53.360;6.290;2022-11-15T08:37:47;10.30;99.90
64396;DHT22;50717;53.360;6.290;2022-11-15T08:40:13;10.50;99.90
64396;DHT22;50717;53.360;6.290;2022-11-15T08:42:39;10.90;99.90
64396;DHT22;50717;53.360;6.290;2022-11-15T08:45:05;10.00;99.90
64396;DHT22;50717;53.360;6.290;2022-11-15T08:47:31;10.60;99.90
64396;DHT22;50717;53.360;6.290;2022-11-15T08:49:57;10.40;99.90
64396;DHT22;50717;53.360;6.290;2022-11-15T08:52:23;10.90;99.90
64396;DHT22;50717;53.360;6.290;2022-11-15T08:54:48;10.00;99.90
64396;DHT22;50717;53.360;6.290;2022-11-15T08:57:14;10.90;99.90
64396;DHT22;50717;53.360;6.290;2022-11-15T08:59:40;11.00;99.90
64396;DHT22;50717;53.360;6.290;2022-11-15T09:02:05;11.00;99.90
64396;DHT22;50717;53.360;6.290;2022-11-15T09:04:31;11.20;99.90
64396;DHT22;50717;53.360;6.290;2022-11-15T09:06:57;11.10;99.90
64396;DHT22;50717;53.360;6.290;2022-11-15T09:09:23;11.50;99.90
64396;DHT22;50717;53.360;6.290;2022-11-15T09:11:48;10.30;99.90
64396;DHT22;50717;53.360;6.290;2022-11-15T09:14:16;11.50;99.90
64396;DHT22;50717;53.360;6.290;2022-11-15T09:16:41;10.90;99.90
64396;DHT22;50717;53.360;6.290;2022-11-15T09:19:07;10.30;99.90
64396;DHT22;50717;53.360;6.290;2022-11-15T09:21:33;11.10;99.90
64396;DHT22;50717;53.360;6.290;2022-11-15T09:23:58;11.20;99.90
64396;DHT22;50717;53.360;6.290;2022-11-15T09:26:24;11.20;99.90
64396;DHT22;50717;53.360;6.290;2022-11-15T09:28:50;11.10;99.90
64396;DHT22;50717;53.360;6.290;2022-11-15T09:31:16;11.80;99.90
64396;DHT22;50717;53.360;6.290;2022-11-15T09:33:45;12.40;99.90
64396;DHT22;50717;53.360;6.290;2022-11-15T09:36:11;10.70;99.90
64396;DHT22;50717;53.360;6.290;2022-11-15T09:38:37;10.80;99.90
64396;DHT22;50717;53.360;6.290;2022-11-15T09:48:56;10.90;99.90
64396;DHT22;50717;53.360;6.290;2022-11-15T09:51:43;11.00;99.90
64396;DHT22;50717;53.360;6.290;2022-11-15T09:54:42;11.40;99.90
64396;DHT22;50717;53.360;6.290;2022-11-15T09:59:59;11.50;99.90
64396;DHT22;50717;53.360;6.290;2022-11-15T10:05:04;11.50;99.90
64396;DHT22;50717;53.360;6.290;2022-11-15T10:12:53;11.70;99.90
64396;DHT22;50717;53.360;6.290;2022-11-15T10:15:19;11.60;99.90
64396;DHT22;50717;53.360;6.290;2022-11-15T10:18:07;11.70;99.90
64396;DHT22;50717;53.360;6.290;2022-11-15T10:20:49;11.50;99.90
64396;DHT22;50717;53.360;6.290;2022-11-15T10:23:18;11.70;99.90
64396;DHT22;50717;53.360;6.290;2022-11-15T10:25:44;12.10;99.90
64396;DHT22;50717;53.360;6.290;2022-11-15T10:30:45;12.30;99.90
64396;DHT22;50717;53.360;6.290;2022-11-15T10:33:52;12.00;99.90
64396;DHT22;50717;53.360;6.290;2022-11-15T10:38:53;12.20;99.90
64396;DHT22;50717;53.360;6.290;2022-11-15T10:41:40;12.90;99.90
64396;DHT22;50717;53.360;6.290;2022-11-15T10:49:30;12.10;99.90
64396;DHT22;50717;53.360;6.290;2022-11-15T10:54:43;11.90;99.90
64396;DHT22;50717;53.360;6.290;2022-11-15T10:57:17;12.10;99.90
64396;DHT22;50717;53.360;6.290;2022-11-15T10:59:57;12.30;99.90
64396;DHT22;50717;53.360;6.290;2022-11-15T11:02:28;12.10;99.90
64396;DHT22;50717;53.360;6.290;2022-11-15T11:04:54;12.10;99.90
64396;DHT22;50717;53.360;6.290;2022-11-15T11:07:23;12.20;99.90
64396;DHT22;50717;53.360;6.290;2022-11-15T11:09:57;12.00;99.90
64396;DHT22;50717;53.360;6.290;2022-11-15T11:12:28;12.00;99.90
64396;DHT22;50717;53.360;6.290;2022-11-15T11:14:55;12.20;99.90
64396;DHT22;50717;53.360;6.290;2022-11-15T11:28:42;12.10;99.90
64396;DHT22;50717;53.360;6.290;2022-11-15T11:31:31;12.30;99.90
64396;DHT22;50717;53.360;6.290;2022-11-15T11:42:36;12.40;99.90
64396;DHT22;50717;53.360;6.290;2022-11-15T11:51:28;12.90;99.90
64396;DHT22;50717;53.360;6.290;2022-11-15T11:54:05;12.60;99.90
64396;DHT22;50717;53.360;6.290;2022-11-15T11:56:38;12.00;99.90
64396;DHT22;50717;53.360;6.290;2022-11-15T12:00:00;12.40;99.90
64396;DHT22;50717;53.360;6.290;2022-11-15T12:02:29;12.80;99.90
64396;DHT22;50717;53.360;6.290;2022-11-15T12:05:09;12.80;99.90
64396;DHT22;50717;53.360;6.290;2022-11-15T12:07:37;12.60;99.90
64396;DHT22;50717;53.360;6.290;2022-11-15T12:10:15;12.70;99.90
64396;DHT22;50717;53.360;6.290;2022-11-15T12:13:00;12.50;99.90
64396;DHT22;50717;53.360;6.290;2022-11-15T12:15:37;12.60;99.90
64396;DHT22;50717;53.360;6.290;2022-11-15T12:18:07;12.70;99.90
64396;DHT22;50717;53.360;6.290;2022-11-15T12:20:37;12.50;99.90
64396;DHT22;50717;53.360;6.290;2022-11-15T12:23:17;12.50;99.90
64396;DHT22;50717;53.360;6.290;2022-11-15T12:25:52;12.50;99.90
64396;DHT22;50717;53.360;6.290;2022-11-15T12:28:44;12.60;99.90
64396;DHT22;50717;53.360;6.290;2022-11-15T12:31:18;12.20;99.90
64396;DHT22;50717;53.360;6.290;2022-11-15T12:33:47;12.60;99.90
64396;DHT22;50717;53.360;6.290;2022-11-15T12:39:05;12.80;99.90
64396;DHT22;50717;53.360;6.290;2022-11-15T12:41:33;12.80;99.90
64396;DHT22;50717;53.360;6.290;2022-11-15T12:44:00;12.50;99.90
64396;DHT22;50717;53.360;6.290;2022-11-15T12:48:59;12.90;99.90
64396;DHT22;50717;53.360;6.290;2022-11-15T12:59:53;13.50;99.90
64396;DHT22;50717;53.360;6.290;2022-11-15T13:02:44;14.70;99.90
64396;DHT22;50717;53.360;6.290;2022-11-15T13:17:45;14.10;99.90
64396;DHT22;50717;53.360;6.290;2022-11-15T13:31:33;13.20;99.90
64396;DHT22;50717;53.360;6.290;2022-11-15T13:34:12;13.10;99.90
64396;DHT22;50717;53.360;6.290;2022-11-15T13:36:39;13.60;99.90
64396;DHT22;50717;53.360;6.290;2022-11-15T13:41:52;12.50;99.90
64396;DHT22;50717;53.360;6.290;2022-11-15T13:44:27;12.40;99.90
64396;DHT22;50717;53.360;6.290;2022-11-15T13:47:06;12.70;99.90
64396;DHT22;50717;53.360;6.290;2022-11-15T13:49:33;12.60;99.90
64396;DHT22;50717;53.360;6.290;2022-11-15T13:52:01;12.10;99.90
64396;DHT22;50717;53.360;6.290;2022-11-15T13:54:34;12.50;99.90
64396;DHT22;50717;53.360;6.290;2022-11-15T13:57:04;12.30;99.90
64396;DHT22;50717;53.360;6.290;2022-11-15T13:59:35;12.80;99.90
64396;DHT22;50717;53.360;6.290;2022-11-15T14:02:13;12.60;99.90
64396;DHT22;50717;53.360;6.290;2022-11-15T14:04:48;11.90;99.90
64396;DHT22;50717;53.360;6.290;2022-11-15T14:07:20;12.20;99.90
64396;DHT22;50717;53.360;6.290;2022-11-15T14:09:46;12.30;99.90
64396;DHT22;50717;53.360;6.290;2022-11-15T14:12:33;12.20;99.90
64396;DHT22;50717;53.360;6.290;2022-11-15T14:15:02;12.30;99.90
64396;DHT22;50717;53.360;6.290;2022-11-15T14:17:43;11.90;99.90
64396;DHT22;50717;53.360;6.290;2022-11-15T14:22:56;12.00;99.90
64396;DHT22;50717;53.360;6.290;2022-11-15T14:25:24;11.90;99.90
64396;DHT22;50717;53.360;6.290;2022-11-15T14:30:39;11.70;99.90
64396;DHT22;50717;53.360;6.290;2022-11-15T14:33:20;11.70;99.90
64396;DHT22;50717;53.360;6.290;2022-11-15T14:35:46;12.30;99.90
64396;DHT22;50717;53.360;6.290;2022-11-15T14:38:12;11.70;99.90
64396;DHT22;50717;53.360;6.290;2022-11-15T14:40:38;11.70;99.90
64396;DHT22;50717;53.360;6.290;2022-11-15T14:43:04;11.60;99.90
64396;DHT22;50717;53.360;6.290;2022-11-15T14:45:30;11.30;99.90
64396;DHT22;50717;53.360;6.290;2022-11-15T14:47:55;11.40;99.90
64396;DHT22;50717;53.360;6.290;2022-11-15T14:50:21;11.50;99.90
64396;DHT22;50717;53.360;6.290;2022-11-15T14:52:48;11.40;99.90
64396;DHT22;50717;53.360;6.290;2022-11-15T14:55:27;11.00;99.90
64396;DHT22;50717;53.360;6.290;2022-11-15T14:57:54;11.30;99.90
64396;DHT22;50717;53.360;6.290;2022-11-15T15:00:21;11.20;99.90
64396;DHT22;50717;53.360;6.290;2022-11-15T15:02:47;10.90;99.90
64396;DHT22;50717;53.360;6.290;2022-11-15T15:05:22;11.00;99.90
64396;DHT22;50717;53.360;6.290;2022-11-15T15:07:49;11.10;99.90
64396;DHT22;50717;53.360;6.290;2022-11-15T15:10:16;10.70;99.90
64396;DHT22;50717;53.360;6.290;2022-11-15T15:12:42;10.70;99.90
64396;DHT22;50717;53.360;6.290;2022-11-15T15:15:16;10.90;99.90
64396;DHT22;50717;53.360;6.290;2022-11-15T15:17:42;10.90;99.90
64396;DHT22;50717;53.360;6.290;2022-11-15T15:20:08;11.10;99.90
64396;DHT22;50717;53.360;6.290;2022-11-15T15:22:34;10.80;99.90
64396;DHT22;50717;53.360;6.290;2022-11-15T15:25:00;11.60;99.90
64396;DHT22;50717;53.360;6.290;2022-11-15T15:27:25;11.60;99.90
64396;DHT22;50717;53.360;6.290;2022-11-15T15:29:51;11.60;99.90
64396;DHT22;50717;53.360;6.290;2022-11-15T15:32:17;10.50;99.90
64396;DHT22;50717;53.360;6.290;2022-11-15T15:34:43;11.20;99.90
64396;DHT22;50717;53.360;6.290;2022-11-15T15:39:48;10.60;99.90
64396;DHT22;50717;53.360;6.290;2022-11-15T15:42:14;10.70;99.90
64396;DHT22;50717;53.360;6.290;2022-11-15T15:44:39;10.60;99.90
64396;DHT22;50717;53.360;6.290;2022-11-15T15:47:21;10.50;99.90
64396;DHT22;50717;53.360;6.290;2022-11-15T15:49:47;10.70;99.90
64396;DHT22;50717;53.360;6.290;2022-11-15T15:52:14;10.30;99.90
64396;DHT22;50717;53.360;6.290;2022-11-15T15:54:40;10.40;99.90
64396;DHT22;50717;53.360;6.290;2022-11-15T15:57:07;10.00;99.90
64396;DHT22;50717;53.360;6.290;2022-11-15T15:59:33;10.30;99.90
64396;DHT22;50717;53.360;6.290;2022-11-15T16:01:59;10.20;99.90
64396;DHT22;50717;53.360;6.290;2022-11-15T16:04:25;10.00;99.90
64396;DHT22;50717;53.360;6.290;2022-11-15T16:06:51;10.30;99.90
64396;DHT22;50717;53.360;6.290;2022-11-15T16:09:20;10.30;99.90
64396;DHT22;50717;53.360;6.290;2022-11-15T16:12:06;10.90;99.90
64396;DHT22;50717;53.360;6.290;2022-11-15T16:14:32;10.00;99.90
64396;DHT22;50717;53.360;6.290;2022-11-15T16:16:57;9.70;99.90
64396;DHT22;50717;53.360;6.290;2022-11-15T16:19:23;9.70;99.90
64396;DHT22;50717;53.360;6.290;2022-11-15T16:21:49;10.20;99.90
64396;DHT22;50717;53.360;6.290;2022-11-15T16:24:18;9.90;99.90
64396;DHT22;50717;53.360;6.290;2022-11-15T16:26:45;9.70;99.90
64396;DHT22;50717;53.360;6.290;2022-11-15T16:29:10;10.00;99.90
64396;DHT22;50717;53.360;6.290;2022-11-15T16:31:37;9.70;99.90
64396;DHT22;50717;53.360;6.290;2022-11-15T16:34:03;9.70;99.90
64396;DHT22;50717;53.360;6.290;2022-11-15T16:36:31;10.60;99.90
64396;DHT22;50717;53.360;6.290;2022-11-15T16:38:58;9.80;99.90
64396;DHT22;50717;53.360;6.290;2022-11-15T16:41:24;9.60;99.90
64396;DHT22;50717;53.360;6.290;2022-11-15T16:43:50;9.60;99.90
64396;DHT22;50717;53.360;6.290;2022-11-15T16:46:20;9.70;99.90
64396;DHT22;50717;53.360;6.290;2022-11-15T16:48:47;9.80;99.90
64396;DHT22;50717;53.360;6.290;2022-11-15T16:51:13;9.30;99.90
64396;DHT22;50717;53.360;6.290;2022-11-15T16:53:39;10.40;99.90
64396;DHT22;50717;53.360;6.290;2022-11-15T16:58:42;9.80;99.90
64396;DHT22;50717;53.360;6.290;2022-11-15T17:01:21;10.00;99.90
64396;DHT22;50717;53.360;6.290;2022-11-15T17:03:47;9.90;99.90
64396;DHT22;50717;53.360;6.290;2022-11-15T17:06:13;9.80;99.90
64396;DHT22;50717;53.360;6.290;2022-11-15T17:08:40;10.20;99.90
64396;DHT22;50717;53.360;6.290;2022-11-15T17:11:08;9.90;99.90
64396;DHT22;50717;53.360;6.290;2022-11-15T17:13:34;10.10;99.90
64396;DHT22;50717;53.360;6.290;2022-11-15T17:16:22;9.90;99.90
64396;DHT22;50717;53.360;6.290;2022-11-15T17:18:50;10.30;99.90
64396;DHT22;50717;53.360;6.290;2022-11-15T17:21:18;10.00;99.90
64396;DHT22;50717;53.360;6.290;2022-11-15T17:23:44;10.20;99.90
64396;DHT22;50717;53.360;6.290;2022-11-15T17:26:11;10.10;99.90
64396;DHT22;50717;53.360;6.290;2022-11-15T17:28:38;10.60;99.90
64396;DHT22;50717;53.360;6.290;2022-11-15T17:31:12;10.90;99.90
64396;DHT22;50717;53.360;6.290;2022-11-15T17:33:39;10.10;99.90
64396;DHT22;50717;53.360;6.290;2022-11-15T17:36:07;11.00;99.90
64396;DHT22;50717;53.360;6.290;2022-11-15T17:38:35;10.40;99.90
64396;DHT22;50717;53.360;6.290;2022-11-15T17:41:05;10.30;99.90
64396;DHT22;50717;53.360;6.290;2022-11-15T17:43:32;10.30;99.90
64396;DHT22;50717;53.360;6.290;2022-11-15T17:45:59;10.30;99.90
64396;DHT22;50717;53.360;6.290;2022-11-15T17:48:29;10.70;99.90
64396;DHT22;50717;53.360;6.290;2022-11-15T17:51:00;10.40;99.90
64396;DHT22;50717;53.360;6.290;2022-11-15T17:53:26;10.60;99.90
64396;DHT22;50717;53.360;6.290;2022-11-15T17:55:52;11.00;99.90
64396;DHT22;50717;53.360;6.290;2022-11-15T17:58:19;10.30;99.90
64396;DHT22;50717;53.360;6.290;2022-11-15T18:00:45;11.30;99.90
64396;DHT22;50717;53.360;6.290;2022-11-15T18:03:11;10.60;99.90
64396;DHT22;50717;53.360;6.290;2022-11-15T18:05:37;10.30;99.90